hwlogo.jpg (8581 bytes)
Home Your Weather Products Services Weather On Your Site Contact
HW Version Logo
Weather Info
Your Weather (Options)
Canadian Weather
International Weather
Enter your " Place, State", US Zip Code or ICAO:  
Forecast Information Radar Information
Castlegar, British Columbia, Canada  Lat: 49.28N, Lon: 117.62W
ICAO Used: CYCG
Current Conditions
Updated: 5:00 PM PST SUN FEB 18 2018
Sun & Moon Information
Mostly Cloudy
Mostly Cloudy
Temp: -5°C
Humidity: 41%
Wind Speed: NE 8 MPH
Barometer: 1012 mb
Dewpoint: -16°C
Heat Index: -5°C
Wind Chill: -10°C
Civil Twilight: 6:22 AM PST Moon Phase:
Waxing Crescent Moon
Sunrise: 6:54 AM PST
Sunset: 5:13 PM PST
Civil Twilight: 5:46 PM PST
Forecast for Castlegar, BC:
(Forecast based on TAF for )
0100 PM PST MON FEB 19 2018
  
AFTERNOON EVENING OVERNIGHT
Light
Snow
ZoneCast:
Dated: 0100 PM PST MON FEB 19 2018
Afternoon...A 30 percent chance to light snow.

Evening...A percent chance to .

Overnight...A percent chance to .

Original Encoded TAF:
Dated: 0100 PM PST MON FEB 19 2018
2018/02/18 20:27
TAF 
      AMD TAF 
      AMD CYCG 182024Z 1820/1901 01008KT P6SM BKN040 BKN120 PROB30 1821/1901 5SM -SN BKN030 BKN060 
      RMK NXT FCST WILL BE ISSUED AT 191545Z